sensor_id;sensor_type;location;lat;lon;timestamp;temperature;humidity
9699;DHT22;10089;47.876;8.346;2024-01-16T00:02:14;-6.10;1.00
9699;DHT22;10089;47.876;8.346;2024-01-16T00:04:39;-6.10;1.00
9699;DHT22;10089;47.876;8.346;2024-01-16T00:07:06;-6.20;1.00
9699;DHT22;10089;47.876;8.346;2024-01-16T00:09:35;-6.20;1.00
9699;DHT22;10089;47.876;8.346;2024-01-16T00:12:04;-6.20;1.00
9699;DHT22;10089;47.876;8.346;2024-01-16T00:14:30;-6.20;1.00
9699;DHT22;10089;47.876;8.346;2024-01-16T00:16:55;-6.30;1.00
9699;DHT22;10089;47.876;8.346;2024-01-16T00:19:21;-6.20;1.00
9699;DHT22;10089;47.876;8.346;2024-01-16T00:21:46;-6.30;1.00
9699;DHT22;10089;47.876;8.346;2024-01-16T00:24:13;-6.30;1.00
9699;DHT22;10089;47.876;8.346;2024-01-16T00:26:38;-6.30;1.00
9699;DHT22;10089;47.876;8.346;2024-01-16T00:29:04;-6.30;1.00
9699;DHT22;10089;47.876;8.346;2024-01-16T00:31:30;-6.50;1.00
9699;DHT22;10089;47.876;8.346;2024-01-16T00:33:55;-6.50;1.00
9699;DHT22;10089;47.876;8.346;2024-01-16T00:36:21;-6.40;99.90
9699;DHT22;10089;47.876;8.346;2024-01-16T00:38:46;-6.50;99.90
9699;DHT22;10089;47.876;8.346;2024-01-16T00:41:12;-6.60;1.00
9699;DHT22;10089;47.876;8.346;2024-01-16T00:43:41;-6.90;1.00
9699;DHT22;10089;47.876;8.346;2024-01-16T00:46:07;-7.00;1.00
9699;DHT22;10089;47.876;8.346;2024-01-16T00:48:33;-7.00;1.00
9699;DHT22;10089;47.876;8.346;2024-01-16T00:50:58;-7.10;1.00
9699;DHT22;10089;47.876;8.346;2024-01-16T00:53:25;-7.00;99.90
9699;DHT22;10089;47.876;8.346;2024-01-16T00:55:51;-7.00;1.00
9699;DHT22;10089;47.876;8.346;2024-01-16T00:58:17;-7.10;1.00
9699;DHT22;10089;47.876;8.346;2024-01-16T01:00:43;-7.20;1.00
9699;DHT22;10089;47.876;8.346;2024-01-16T01:03:08;-7.20;1.00
9699;DHT22;10089;47.876;8.346;2024-01-16T01:05:34;-7.00;99.90
9699;DHT22;10089;47.876;8.346;2024-01-16T01:07:59;-7.10;1.00
9699;DHT22;10089;47.876;8.346;2024-01-16T01:10:25;-7.20;1.00
9699;DHT22;10089;47.876;8.346;2024-01-16T01:12:50;-7.20;1.00
9699;DHT22;10089;47.876;8.346;2024-01-16T01:15:19;-7.50;99.90
9699;DHT22;10089;47.876;8.346;2024-01-16T01:17:47;-7.60;99.90
9699;DHT22;10089;47.876;8.346;2024-01-16T01:20:13;-7.50;99.90
9699;DHT22;10089;47.876;8.346;2024-01-16T01:22:39;-7.40;99.90
9699;DHT22;10089;47.876;8.346;2024-01-16T01:25:05;-7.30;99.90
9699;DHT22;10089;47.876;8.346;2024-01-16T01:27:31;-7.50;99.90
9699;DHT22;10089;47.876;8.346;2024-01-16T01:29:57;-7.50;99.90
9699;DHT22;10089;47.876;8.346;2024-01-16T01:32:23;-7.50;99.90
9699;DHT22;10089;47.876;8.346;2024-01-16T01:34:49;-7.80;99.90
9699;DHT22;10089;47.876;8.346;2024-01-16T01:37:14;-7.80;99.90
9699;DHT22;10089;47.876;8.346;2024-01-16T01:39:40;-7.70;99.90
9699;DHT22;10089;47.876;8.346;2024-01-16T01:42:06;-7.80;1.00
9699;DHT22;10089;47.876;8.346;2024-01-16T01:44:32;-7.60;1.00
9699;DHT22;10089;47.876;8.346;2024-01-16T01:46:57;-7.50;1.00
9699;DHT22;10089;47.876;8.346;2024-01-16T01:49:24;-7.30;99.90
9699;DHT22;10089;47.876;8.346;2024-01-16T01:51:50;-7.70;89.70
9699;DHT22;10089;47.876;8.346;2024-01-16T01:54:17;-7.50;99.90
9699;DHT22;10089;47.876;8.346;2024-01-16T01:56:45;-7.40;99.90
9699;DHT22;10089;47.876;8.346;2024-01-16T01:59:12;-7.40;99.90
9699;DHT22;10089;47.876;8.346;2024-01-16T02:01:39;-7.50;7.80
9699;DHT22;10089;47.876;8.346;2024-01-16T02:04:05;-7.60;1.00
9699;DHT22;10089;47.876;8.346;2024-01-16T02:06:31;-7.50;99.90
9699;DHT22;10089;47.876;8.346;2024-01-16T02:08:58;-7.40;99.90
9699;DHT22;10089;47.876;8.346;2024-01-16T02:11:24;-7.50;83.50
9699;DHT22;10089;47.876;8.346;2024-01-16T02:13:50;-7.40;99.90
9699;DHT22;10089;47.876;8.346;2024-01-16T02:16:22;-7.40;99.90
9699;DHT22;10089;47.876;8.346;2024-01-16T02:18:48;-7.40;99.90
9699;DHT22;10089;47.876;8.346;2024-01-16T02:21:20;-7.40;99.90
9699;DHT22;10089;47.876;8.346;2024-01-16T02:23:46;-7.30;99.90
9699;DHT22;10089;47.876;8.346;2024-01-16T02:26:14;-7.40;56.60
9699;DHT22;10089;47.876;8.346;2024-01-16T02:28:40;-7.50;1.00
9699;DHT22;10089;47.876;8.346;2024-01-16T02:31:07;-7.40;99.90
9699;DHT22;10089;47.876;8.346;2024-01-16T02:33:33;-7.40;99.90
9699;DHT22;10089;47.876;8.346;2024-01-16T02:35:58;-7.60;87.70
9699;DHT22;10089;47.876;8.346;2024-01-16T02:38:24;-7.20;42.70
9699;DHT22;10089;47.876;8.346;2024-01-16T02:40:50;-7.60;99.90
9699;DHT22;10089;47.876;8.346;2024-01-16T02:43:16;-7.70;23.70
9699;DHT22;10089;47.876;8.346;2024-01-16T02:45:42;-7.60;99.90
9699;DHT22;10089;47.876;8.346;2024-01-16T02:48:08;-7.60;99.90
9699;DHT22;10089;47.876;8.346;2024-01-16T02:50:33;-7.80;47.20
9699;DHT22;10089;47.876;8.346;2024-01-16T02:52:59;-7.90;1.00
9699;DHT22;10089;47.876;8.346;2024-01-16T02:55:25;-8.00;1.00
9699;DHT22;10089;47.876;8.346;2024-01-16T02:57:50;-8.00;1.00
9699;DHT22;10089;47.876;8.346;2024-01-16T03:00:16;-7.70;1.00
9699;DHT22;10089;47.876;8.346;2024-01-16T03:02:43;-8.20;6.70
9699;DHT22;10089;47.876;8.346;2024-01-16T03:05:09;-8.20;99.90
9699;DHT22;10089;47.876;8.346;2024-01-16T03:07:36;-8.30;99.90
9699;DHT22;10089;47.876;8.346;2024-01-16T03:10:02;-8.30;19.20
9699;DHT22;10089;47.876;8.346;2024-01-16T03:12:28;-8.40;1.00
9699;DHT22;10089;47.876;8.346;2024-01-16T03:14:54;-8.30;10.10
9699;DHT22;10089;47.876;8.346;2024-01-16T03:17:19;-8.40;73.70
9699;DHT22;10089;47.876;8.346;2024-01-16T03:19:45;-8.50;1.00
9699;DHT22;10089;47.876;8.346;2024-01-16T03:22:11;-8.60;1.00
9699;DHT22;10089;47.876;8.346;2024-01-16T03:24:37;-8.60;1.00
9699;DHT22;10089;47.876;8.346;2024-01-16T03:27:02;-8.60;99.90
9699;DHT22;10089;47.876;8.346;2024-01-16T03:29:29;-8.60;26.60
9699;DHT22;10089;47.876;8.346;2024-01-16T03:31:55;-8.60;99.90
9699;DHT22;10089;47.876;8.346;2024-01-16T03:34:23;-8.60;99.90
9699;DHT22;10089;47.876;8.346;2024-01-16T03:36:49;-8.70;99.90
9699;DHT22;10089;47.876;8.346;2024-01-16T03:39:14;-8.70;99.90
9699;DHT22;10089;47.876;8.346;2024-01-16T03:41:40;-8.70;99.90
9699;DHT22;10089;47.876;8.346;2024-01-16T03:44:05;-8.80;1.00
9699;DHT22;10089;47.876;8.346;2024-01-16T03:46:31;-8.70;99.90
9699;DHT22;10089;47.876;8.346;2024-01-16T03:48:56;-8.70;99.90
9699;DHT22;10089;47.876;8.346;2024-01-16T03:51:22;-8.80;99.90
9699;DHT22;10089;47.876;8.346;2024-01-16T03:53:47;-9.00;30.00
9699;DHT22;10089;47.876;8.346;2024-01-16T03:56:15;-9.00;99.90
9699;DHT22;10089;47.876;8.346;2024-01-16T03:58:41;-8.80;1.00
9699;DHT22;10089;47.876;8.346;2024-01-16T04:01:07;-8.80;99.90
9699;DHT22;10089;47.876;8.346;2024-01-16T04:03:33;-9.00;99.90
9699;DHT22;10089;47.876;8.346;2024-01-16T04:06:00;-8.90;99.90
9699;DHT22;10089;47.876;8.346;2024-01-16T04:08:25;-8.90;99.90
9699;DHT22;10089;47.876;8.346;2024-01-16T04:10:51;-8.80;99.90
9699;DHT22;10089;47.876;8.346;2024-01-16T04:13:17;-8.80;99.90
9699;DHT22;10089;47.876;8.346;2024-01-16T04:15:43;-8.90;99.90
9699;DHT22;10089;47.876;8.346;2024-01-16T04:18:08;-8.80;99.90
9699;DHT22;10089;47.876;8.346;2024-01-16T04:20:34;-8.80;99.90
9699;DHT22;10089;47.876;8.346;2024-01-16T04:23:00;-8.80;99.90
9699;DHT22;10089;47.876;8.346;2024-01-16T04:25:25;-8.90;99.90
9699;DHT22;10089;47.876;8.346;2024-01-16T04:27:51;-8.80;99.90
9699;DHT22;10089;47.876;8.346;2024-01-16T04:30:16;-8.80;99.90
9699;DHT22;10089;47.876;8.346;2024-01-16T04:32:42;-9.00;99.90
9699;DHT22;10089;47.876;8.346;2024-01-16T04:35:08;-9.00;99.90
9699;DHT22;10089;47.876;8.346;2024-01-16T04:37:34;-9.10;99.90
9699;DHT22;10089;47.876;8.346;2024-01-16T04:39:59;-9.10;99.90
9699;DHT22;10089;47.876;8.346;2024-01-16T04:42:25;-9.20;99.90
9699;DHT22;10089;47.876;8.346;2024-01-16T04:44:51;-9.20;99.90
9699;DHT22;10089;47.876;8.346;2024-01-16T04:47:16;-9.00;1.00
9699;DHT22;10089;47.876;8.346;2024-01-16T04:49:42;-9.00;99.90
9699;DHT22;10089;47.876;8.346;2024-01-16T04:52:08;-9.00;99.90
9699;DHT22;10089;47.876;8.346;2024-01-16T04:54:34;-8.80;1.00
9699;DHT22;10089;47.876;8.346;2024-01-16T04:56:59;-9.00;99.90
9699;DHT22;10089;47.876;8.346;2024-01-16T04:59:25;-9.10;99.90
9699;DHT22;10089;47.876;8.346;2024-01-16T05:01:51;-9.40;1.00
9699;DHT22;10089;47.876;8.346;2024-01-16T05:04:17;-9.20;99.90
9699;DHT22;10089;47.876;8.346;2024-01-16T05:06:42;-9.20;1.00
9699;DHT22;10089;47.876;8.346;2024-01-16T05:09:08;-9.20;99.90
9699;DHT22;10089;47.876;8.346;2024-01-16T05:11:35;-9.30;99.90
9699;DHT22;10089;47.876;8.346;2024-01-16T05:14:00;-9.20;99.90
9699;DHT22;10089;47.876;8.346;2024-01-16T05:16:26;-9.20;99.90
9699;DHT22;10089;47.876;8.346;2024-01-16T05:18:53;-9.20;99.90
9699;DHT22;10089;47.876;8.346;2024-01-16T05:21:19;-9.20;99.90
9699;DHT22;10089;47.876;8.346;2024-01-16T05:23:45;-9.30;99.90
9699;DHT22;10089;47.876;8.346;2024-01-16T05:26:10;-9.30;99.90
9699;DHT22;10089;47.876;8.346;2024-01-16T05:28:36;-9.30;99.90
9699;DHT22;10089;47.876;8.346;2024-01-16T05:31:03;-9.40;99.90
9699;DHT22;10089;47.876;8.346;2024-01-16T05:33:29;-9.20;1.00
9699;DHT22;10089;47.876;8.346;2024-01-16T05:35:57;-9.10;99.90
9699;DHT22;10089;47.876;8.346;2024-01-16T05:38:22;-9.20;99.90
9699;DHT22;10089;47.876;8.346;2024-01-16T05:40:48;-9.20;99.90
9699;DHT22;10089;47.876;8.346;2024-01-16T05:43:13;-9.30;99.90
9699;DHT22;10089;47.876;8.346;2024-01-16T05:45:40;-9.30;99.90
9699;DHT22;10089;47.876;8.346;2024-01-16T05:48:05;-9.30;99.90
9699;DHT22;10089;47.876;8.346;2024-01-16T05:50:33;-9.30;99.90
9699;DHT22;10089;47.876;8.346;2024-01-16T05:52:59;-9.30;99.90
9699;DHT22;10089;47.876;8.346;2024-01-16T05:55:24;-9.50;99.90
9699;DHT22;10089;47.876;8.346;2024-01-16T05:57:50;-9.40;99.90
9699;DHT22;10089;47.876;8.346;2024-01-16T06:00:16;-9.60;99.90
9699;DHT22;10089;47.876;8.346;2024-01-16T06:02:43;-9.60;99.90
9699;DHT22;10089;47.876;8.346;2024-01-16T06:05:09;-9.60;99.90
9699;DHT22;10089;47.876;8.346;2024-01-16T06:07:35;-9.50;99.90
9699;DHT22;10089;47.876;8.346;2024-01-16T06:10:00;-9.40;99.90
9699;DHT22;10089;47.876;8.346;2024-01-16T06:12:26;-9.40;99.90
9699;DHT22;10089;47.876;8.346;2024-01-16T06:14:51;-9.50;99.90
9699;DHT22;10089;47.876;8.346;2024-01-16T06:17:17;-9.50;99.90
9699;DHT22;10089;47.876;8.346;2024-01-16T06:19:42;-9.50;99.90
9699;DHT22;10089;47.876;8.346;2024-01-16T06:22:08;-9.40;99.90
9699;DHT22;10089;47.876;8.346;2024-01-16T06:24:34;-9.50;99.90
9699;DHT22;10089;47.876;8.346;2024-01-16T06:27:06;-9.70;99.90
9699;DHT22;10089;47.876;8.346;2024-01-16T06:29:32;-9.50;99.90
9699;DHT22;10089;47.876;8.346;2024-01-16T06:31:58;-9.70;99.90
9699;DHT22;10089;47.876;8.346;2024-01-16T06:34:23;-9.80;99.90
9699;DHT22;10089;47.876;8.346;2024-01-16T06:36:49;-9.70;99.90
9699;DHT22;10089;47.876;8.346;2024-01-16T06:39:15;-9.70;99.90
9699;DHT22;10089;47.876;8.346;2024-01-16T06:41:41;-9.60;99.90
9699;DHT22;10089;47.876;8.346;2024-01-16T06:44:07;-9.60;99.90
9699;DHT22;10089;47.876;8.346;2024-01-16T06:46:32;-9.60;99.90
9699;DHT22;10089;47.876;8.346;2024-01-16T06:48:58;-9.70;99.90
9699;DHT22;10089;47.876;8.346;2024-01-16T06:51:23;-9.70;99.90
9699;DHT22;10089;47.876;8.346;2024-01-16T06:53:49;-9.70;99.90
9699;DHT22;10089;47.876;8.346;2024-01-16T06:56:14;-9.60;1.00
9699;DHT22;10089;47.876;8.346;2024-01-16T06:58:40;-9.50;1.00
9699;DHT22;10089;47.876;8.346;2024-01-16T07:01:05;-9.50;1.00
9699;DHT22;10089;47.876;8.346;2024-01-16T07:03:31;-9.40;1.00
9699;DHT22;10089;47.876;8.346;2024-01-16T07:05:57;-9.40;1.00
9699;DHT22;10089;47.876;8.346;2024-01-16T07:08:22;-9.40;1.00
9699;DHT22;10089;47.876;8.346;2024-01-16T07:10:48;-9.40;99.90
9699;DHT22;10089;47.876;8.346;2024-01-16T07:13:14;-9.40;1.00
9699;DHT22;10089;47.876;8.346;2024-01-16T07:15:39;-9.40;99.90
9699;DHT22;10089;47.876;8.346;2024-01-16T07:18:05;-8.80;1.00
9699;DHT22;10089;47.876;8.346;2024-01-16T07:20:31;-9.30;99.90
9699;DHT22;10089;47.876;8.346;2024-01-16T07:22:56;-9.30;99.90
9699;DHT22;10089;47.876;8.346;2024-01-16T07:25:22;-9.30;99.90
9699;DHT22;10089;47.876;8.346;2024-01-16T07:27:47;-7.50;99.90
9699;DHT22;10089;47.876;8.346;2024-01-16T07:30:15;-9.40;99.90
9699;DHT22;10089;47.876;8.346;2024-01-16T07:32:41;-8.30;99.90
9699;DHT22;10089;47.876;8.346;2024-01-16T07:35:07;-9.30;99.90
9699;DHT22;10089;47.876;8.346;2024-01-16T07:37:32;-9.40;99.90
9699;DHT22;10089;47.876;8.346;2024-01-16T07:39:58;-9.50;99.90
9699;DHT22;10089;47.876;8.346;2024-01-16T07:42:24;-8.90;99.90
9699;DHT22;10089;47.876;8.346;2024-01-16T07:44:49;-9.50;99.90
9699;DHT22;10089;47.876;8.346;2024-01-16T07:47:15;-9.30;99.90
9699;DHT22;10089;47.876;8.346;2024-01-16T07:49:41;-9.40;1.00
9699;DHT22;10089;47.876;8.346;2024-01-16T07:52:07;-9.40;1.00
9699;DHT22;10089;47.876;8.346;2024-01-16T07:54:33;-9.40;32.60
9699;DHT22;10089;47.876;8.346;2024-01-16T07:56:58;-9.30;1.00
9699;DHT22;10089;47.876;8.346;2024-01-16T07:59:24;-9.20;58.70
9699;DHT22;10089;47.876;8.346;2024-01-16T08:01:52;-8.50;99.90
9699;DHT22;10089;47.876;8.346;2024-01-16T08:04:17;-8.40;99.90
9699;DHT22;10089;47.876;8.346;2024-01-16T08:06:43;-8.90;99.90
9699;DHT22;10089;47.876;8.346;2024-01-16T08:09:09;-8.70;99.90
9699;DHT22;10089;47.876;8.346;2024-01-16T08:11:37;-8.30;99.90
9699;DHT22;10089;47.876;8.346;2024-01-16T08:14:05;-6.20;99.90
9699;DHT22;10089;47.876;8.346;2024-01-16T08:16:30;-8.10;99.90
9699;DHT22;10089;47.876;8.346;2024-01-16T08:18:56;-7.90;99.90
9699;DHT22;10089;47.876;8.346;2024-01-16T08:21:22;-8.00;99.90
9699;DHT22;10089;47.876;8.346;2024-01-16T08:23:47;-7.90;99.90
9699;DHT22;10089;47.876;8.346;2024-01-16T08:26:13;-7.80;99.90
9699;DHT22;10089;47.876;8.346;2024-01-16T08:28:39;-6.50;99.90
9699;DHT22;10089;47.876;8.346;2024-01-16T08:31:04;-6.50;1.00
9699;DHT22;10089;47.876;8.346;2024-01-16T08:33:30;-6.80;99.90
9699;DHT22;10089;47.876;8.346;2024-01-16T08:35:56;-6.30;99.90
9699;DHT22;10089;47.876;8.346;2024-01-16T08:38:22;-6.50;99.90
9699;DHT22;10089;47.876;8.346;2024-01-16T08:40:48;-6.80;99.90
9699;DHT22;10089;47.876;8.346;2024-01-16T08:43:14;-6.30;1.00
9699;DHT22;10089;47.876;8.346;2024-01-16T08:45:39;-6.10;99.90
9699;DHT22;10089;47.876;8.346;2024-01-16T08:48:05;-4.80;90.10
9699;DHT22;10089;47.876;8.346;2024-01-16T08:50:31;-6.50;1.00
9699;DHT22;10089;47.876;8.346;2024-01-16T08:52:56;-5.10;1.00
9699;DHT22;10089;47.876;8.346;2024-01-16T08:55:22;-2.20;1.00
9699;DHT22;10089;47.876;8.346;2024-01-16T08:57:48;-4.10;1.00
9699;DHT22;10089;47.876;8.346;2024-01-16T09:00:13;-3.30;99.90
9699;DHT22;10089;47.876;8.346;2024-01-16T09:02:40;-3.70;99.90
9699;DHT22;10089;47.876;8.346;2024-01-16T09:05:06;-3.60;1.00
9699;DHT22;10089;47.876;8.346;2024-01-16T09:07:32;-3.50;1.00
9699;DHT22;10089;47.876;8.346;2024-01-16T09:10:01;-1.90;1.00
9699;DHT22;10089;47.876;8.346;2024-01-16T09:12:27;-3.20;1.00
9699;DHT22;10089;47.876;8.346;2024-01-16T09:14:53;-3.80;99.90
9699;DHT22;10089;47.876;8.346;2024-01-16T09:17:18;-2.60;27.50
9699;DHT22;10089;47.876;8.346;2024-01-16T09:19:44;-1.70;99.90
9699;DHT22;10089;47.876;8.346;2024-01-16T09:22:10;-0.90;31.90
9699;DHT22;10089;47.876;8.346;2024-01-16T09:24:35;-0.90;1.00
9699;DHT22;10089;47.876;8.346;2024-01-16T09:27:01;1.30;1.00
9699;DHT22;10089;47.876;8.346;2024-01-16T09:29:31;-0.80;1.00
9699;DHT22;10089;47.876;8.346;2024-01-16T09:31:57;-0.10;1.00
9699;DHT22;10089;47.876;8.346;2024-01-16T09:34:23;0.80;1.00
9699;DHT22;10089;47.876;8.346;2024-01-16T09:36:48;0.90;1.00
9699;DHT22;10089;47.876;8.346;2024-01-16T09:39:14;0.90;1.00
9699;DHT22;10089;47.876;8.346;2024-01-16T09:41:40;0.40;1.00
9699;DHT22;10089;47.876;8.346;2024-01-16T09:44:07;-0.30;1.00
9699;DHT22;10089;47.876;8.346;2024-01-16T09:46:34;-1.20;1.00
9699;DHT22;10089;47.876;8.346;2024-01-16T09:49:02;-1.70;1.00
9699;DHT22;10089;47.876;8.346;2024-01-16T09:51:28;-1.90;1.00
9699;DHT22;10089;47.876;8.346;2024-01-16T09:53:54;-2.30;1.00
9699;DHT22;10089;47.876;8.346;2024-01-16T09:56:23;-2.50;1.00
9699;DHT22;10089;47.876;8.346;2024-01-16T09:58:59;-2.70;1.00
9699;DHT22;10089;47.876;8.346;2024-01-16T10:01:27;-2.40;99.90
9699;DHT22;10089;47.876;8.346;2024-01-16T10:03:53;-1.80;47.10
9699;DHT22;10089;47.876;8.346;2024-01-16T10:06:20;-1.60;1.00
9699;DHT22;10089;47.876;8.346;2024-01-16T10:08:48;-1.60;1.00
9699;DHT22;10089;47.876;8.346;2024-01-16T10:11:13;-1.40;1.00
9699;DHT22;10089;47.876;8.346;2024-01-16T10:13:39;-0.70;1.00
9699;DHT22;10089;47.876;8.346;2024-01-16T10:16:05;-1.40;1.00
9699;DHT22;10089;47.876;8.346;2024-01-16T10:18:30;-1.90;1.00
9699;DHT22;10089;47.876;8.346;2024-01-16T10:20:56;-2.00;14.10
9699;DHT22;10089;47.876;8.346;2024-01-16T10:23:31;-1.40;58.30
9699;DHT22;10089;47.876;8.346;2024-01-16T10:26:24;-0.70;1.00
9699;DHT22;10089;47.876;8.346;2024-01-16T10:28:50;-1.50;1.00
9699;DHT22;10089;47.876;8.346;2024-01-16T10:31:16;-1.50;1.00
9699;DHT22;10089;47.876;8.346;2024-01-16T10:33:42;-1.10;1.00
9699;DHT22;10089;47.876;8.346;2024-01-16T10:36:09;-0.70;1.00
9699;DHT22;10089;47.876;8.346;2024-01-16T10:38:42;-1.30;1.00
9699;DHT22;10089;47.876;8.346;2024-01-16T10:41:17;-1.40;99.90
9699;DHT22;10089;47.876;8.346;2024-01-16T10:43:43;-1.60;99.90
9699;DHT22;10089;47.876;8.346;2024-01-16T10:46:16;-1.60;99.90
9699;DHT22;10089;47.876;8.346;2024-01-16T10:48:44;-1.80;99.90
9699;DHT22;10089;47.876;8.346;2024-01-16T10:51:13;-1.80;99.90
9699;DHT22;10089;47.876;8.346;2024-01-16T10:53:42;-1.80;99.90
9699;DHT22;10089;47.876;8.346;2024-01-16T10:56:11;-2.10;99.90
9699;DHT22;10089;47.876;8.346;2024-01-16T10:58:41;-2.10;1.00
9699;DHT22;10089;47.876;8.346;2024-01-16T11:01:15;-0.80;99.90
9699;DHT22;10089;47.876;8.346;2024-01-16T11:03:48;-1.70;99.90
9699;DHT22;10089;47.876;8.346;2024-01-16T11:06:18;-1.80;1.00
9699;DHT22;10089;47.876;8.346;2024-01-16T11:08:48;-0.10;1.00
9699;DHT22;10089;47.876;8.346;2024-01-16T11:11:14;-0.50;99.90
9699;DHT22;10089;47.876;8.346;2024-01-16T11:13:40;-0.30;99.90
9699;DHT22;10089;47.876;8.346;2024-01-16T11:16:20;-1.30;99.90
9699;DHT22;10089;47.876;8.346;2024-01-16T11:19:13;-0.60;1.00
9699;DHT22;10089;47.876;8.346;2024-01-16T11:21:39;-1.40;36.50
9699;DHT22;10089;47.876;8.346;2024-01-16T11:24:06;-1.20;99.90
9699;DHT22;10089;47.876;8.346;2024-01-16T11:26:33;0.80;1.00
9699;DHT22;10089;47.876;8.346;2024-01-16T11:29:00;-2.30;99.90
9699;DHT22;10089;47.876;8.346;2024-01-16T11:31:33;-1.80;99.90
9699;DHT22;10089;47.876;8.346;2024-01-16T11:34:00;-0.20;1.00
9699;DHT22;10089;47.876;8.346;2024-01-16T11:36:52;0.20;1.00
9699;DHT22;10089;47.876;8.346;2024-01-16T11:39:25;-1.40;1.00
9699;DHT22;10089;47.876;8.346;2024-01-16T11:41:58;-2.10;1.00
9699;DHT22;10089;47.876;8.346;2024-01-16T11:44:43;-2.10;99.90
9699;DHT22;10089;47.876;8.346;2024-01-16T11:47:10;-2.20;1.00
9699;DHT22;10089;47.876;8.346;2024-01-16T11:49:40;-2.40;1.00
9699;DHT22;10089;47.876;8.346;2024-01-16T11:52:06;-2.50;99.90
9699;DHT22;10089;47.876;8.346;2024-01-16T11:54:33;-2.60;9.00
9699;DHT22;10089;47.876;8.346;2024-01-16T12:00:01;-2.40;1.00
9699;DHT22;10089;47.876;8.346;2024-01-16T12:05:13;-1.90;1.00
9699;DHT22;10089;47.876;8.346;2024-01-16T12:07:52;-0.30;1.00
9699;DHT22;10089;47.876;8.346;2024-01-16T12:10:22;-0.90;99.90
9699;DHT22;10089;47.876;8.346;2024-01-16T12:12:49;-0.50;1.00
9699;DHT22;10089;47.876;8.346;2024-01-16T12:15:21;-1.30;1.00
9699;DHT22;10089;47.876;8.346;2024-01-16T12:17:58;-1.50;99.90
9699;DHT22;10089;47.876;8.346;2024-01-16T12:20:29;-1.00;99.90
9699;DHT22;10089;47.876;8.346;2024-01-16T12:23:08;-0.20;1.00
9699;DHT22;10089;47.876;8.346;2024-01-16T12:25:36;-0.50;1.00
9699;DHT22;10089;47.876;8.346;2024-01-16T12:28:03;-0.30;99.90
9699;DHT22;10089;47.876;8.346;2024-01-16T12:30:33;-0.20;99.90
9699;DHT22;10089;47.876;8.346;2024-01-16T12:33:12;-0.90;1.00
9699;DHT22;10089;47.876;8.346;2024-01-16T12:35:42;-0.90;1.00
9699;DHT22;10089;47.876;8.346;2024-01-16T12:38:11;-1.10;1.00
9699;DHT22;10089;47.876;8.346;2024-01-16T12:40:44;-0.60;1.00
9699;DHT22;10089;47.876;8.346;2024-01-16T12:43:10;0.20;99.90
9699;DHT22;10089;47.876;8.346;2024-01-16T12:45:36;-0.60;1.00
9699;DHT22;10089;47.876;8.346;2024-01-16T12:48:02;-0.50;99.90
9699;DHT22;10089;47.876;8.346;2024-01-16T12:50:31;-0.50;99.90
9699;DHT22;10089;47.876;8.346;2024-01-16T12:53:10;-0.50;1.00
9699;DHT22;10089;47.876;8.346;2024-01-16T12:55:39;1.80;99.90
9699;DHT22;10089;47.876;8.346;2024-01-16T12:58:16;-0.80;1.00
9699;DHT22;10089;47.876;8.346;2024-01-16T13:00:47;-1.00;50.70
9699;DHT22;10089;47.876;8.346;2024-01-16T13:03:20;-1.30;11.80
9699;DHT22;10089;47.876;8.346;2024-01-16T13:05:56;-1.10;1.00
9699;DHT22;10089;47.876;8.346;2024-01-16T13:08:22;-1.20;1.00
9699;DHT22;10089;47.876;8.346;2024-01-16T13:13:29;-1.40;99.90
9699;DHT22;10089;47.876;8.346;2024-01-16T13:15:55;-1.80;89.80
9699;DHT22;10089;47.876;8.346;2024-01-16T13:18:24;-1.50;1.00
9699;DHT22;10089;47.876;8.346;2024-01-16T13:20:54;-1.90;99.90
9699;DHT22;10089;47.876;8.346;2024-01-16T13:23:21;-1.50;43.00
9699;DHT22;10089;47.876;8.346;2024-01-16T13:25:48;-1.80;99.90
9699;DHT22;10089;47.876;8.346;2024-01-16T13:28:18;0.30;99.90
9699;DHT22;10089;47.876;8.346;2024-01-16T13:30:44;-3.50;99.90
9699;DHT22;10089;47.876;8.346;2024-01-16T13:33:11;-2.00;1.00
9699;DHT22;10089;47.876;8.346;2024-01-16T13:35:41;-2.00;99.90
9699;DHT22;10089;47.876;8.346;2024-01-16T13:38:07;-1.70;99.90
9699;DHT22;10089;47.876;8.346;2024-01-16T13:40:34;-1.70;99.90
9699;DHT22;10089;47.876;8.346;2024-01-16T13:43:01;-1.90;99.90
9699;DHT22;10089;47.876;8.346;2024-01-16T13:45:27;-1.60;99.90
9699;DHT22;10089;47.876;8.346;2024-01-16T13:47:54;-1.90;1.00
9699;DHT22;10089;47.876;8.346;2024-01-16T13:50:19;-1.80;1.00
9699;DHT22;10089;47.876;8.346;2024-01-16T13:52:45;-2.10;1.00
9699;DHT22;10089;47.876;8.346;2024-01-16T13:55:11;-2.00;99.90
9699;DHT22;10089;47.876;8.346;2024-01-16T13:57:37;-2.20;99.90
9699;DHT22;10089;47.876;8.346;2024-01-16T14:00:04;-1.80;57.40
9699;DHT22;10089;47.876;8.346;2024-01-16T14:02:30;-1.80;99.90
9699;DHT22;10089;47.876;8.346;2024-01-16T14:04:56;-1.90;1.00
9699;DHT22;10089;47.876;8.346;2024-01-16T14:07:21;-2.10;99.90
9699;DHT22;10089;47.876;8.346;2024-01-16T14:09:47;-1.80;99.90
9699;DHT22;10089;47.876;8.346;2024-01-16T14:12:13;-1.70;1.00
9699;DHT22;10089;47.876;8.346;2024-01-16T14:14:40;-2.20;39.20
9699;DHT22;10089;47.876;8.346;2024-01-16T14:17:07;-2.50;1.00
9699;DHT22;10089;47.876;8.346;2024-01-16T14:19:36;-1.90;1.00
9699;DHT22;10089;47.876;8.346;2024-01-16T14:22:02;-2.20;99.90
9699;DHT22;10089;47.876;8.346;2024-01-16T14:24:28;-1.80;1.00
9699;DHT22;10089;47.876;8.346;2024-01-16T14:26:53;-2.20;1.00
9699;DHT22;10089;47.876;8.346;2024-01-16T14:29:21;-2.30;1.00
9699;DHT22;10089;47.876;8.346;2024-01-16T14:31:48;-2.60;62.80
9699;DHT22;10089;47.876;8.346;2024-01-16T14:34:15;0.40;1.00
9699;DHT22;10089;47.876;8.346;2024-01-16T14:36:41;-2.20;1.00
9699;DHT22;10089;47.876;8.346;2024-01-16T14:39:07;-2.70;99.90
9699;DHT22;10089;47.876;8.346;2024-01-16T14:41:39;-0.30;99.90
9699;DHT22;10089;47.876;8.346;2024-01-16T14:44:12;-1.60;99.90
9699;DHT22;10089;47.876;8.346;2024-01-16T14:46:40;-0.20;1.00
9699;DHT22;10089;47.876;8.346;2024-01-16T14:49:12;-0.30;1.00
9699;DHT22;10089;47.876;8.346;2024-01-16T14:51:37;-2.40;99.90
9699;DHT22;10089;47.876;8.346;2024-01-16T14:54:03;-2.20;1.00
9699;DHT22;10089;47.876;8.346;2024-01-16T14:56:33;-1.80;1.00
9699;DHT22;10089;47.876;8.346;2024-01-16T14:59:22;-1.50;99.90
9699;DHT22;10089;47.876;8.346;2024-01-16T15:01:48;-1.90;99.90
9699;DHT22;10089;47.876;8.346;2024-01-16T15:04:17;-2.50;99.90
9699;DHT22;10089;47.876;8.346;2024-01-16T15:06:45;-2.60;99.90
9699;DHT22;10089;47.876;8.346;2024-01-16T15:09:22;-2.20;1.00
9699;DHT22;10089;47.876;8.346;2024-01-16T15:11:53;-2.00;1.00
9699;DHT22;10089;47.876;8.346;2024-01-16T15:14:18;-2.50;99.90
9699;DHT22;10089;47.876;8.346;2024-01-16T15:16:44;-2.60;99.90
9699;DHT22;10089;47.876;8.346;2024-01-16T15:19:10;-2.60;1.00
9699;DHT22;10089;47.876;8.346;2024-01-16T15:21:35;-2.60;1.00
9699;DHT22;10089;47.876;8.346;2024-01-16T15:24:02;-2.70;99.90
9699;DHT22;10089;47.876;8.346;2024-01-16T15:26:28;-2.80;1.00
9699;DHT22;10089;47.876;8.346;2024-01-16T15:28:53;-2.80;1.00
9699;DHT22;10089;47.876;8.346;2024-01-16T15:31:19;-2.90;1.00
9699;DHT22;10089;47.876;8.346;2024-01-16T15:33:46;-2.90;1.00
9699;DHT22;10089;47.876;8.346;2024-01-16T15:36:12;-3.00;1.00
9699;DHT22;10089;47.876;8.346;2024-01-16T15:38:38;-3.10;1.00
9699;DHT22;10089;47.876;8.346;2024-01-16T15:41:03;-3.10;21.40
9699;DHT22;10089;47.876;8.346;2024-01-16T15:43:29;-3.20;99.90
9699;DHT22;10089;47.876;8.346;2024-01-16T15:45:55;-3.20;99.90
9699;DHT22;10089;47.876;8.346;2024-01-16T15:48:21;-3.30;33.00
9699;DHT22;10089;47.876;8.346;2024-01-16T15:50:47;-3.30;99.90
9699;DHT22;10089;47.876;8.346;2024-01-16T15:53:14;-3.40;11.70
9699;DHT22;10089;47.876;8.346;2024-01-16T15:55:41;-3.50;99.90
9699;DHT22;10089;47.876;8.346;2024-01-16T15:58:07;-3.60;99.90
9699;DHT22;10089;47.876;8.346;2024-01-16T16:00:32;-3.70;99.90